Main page
Satellite images 10-day forecastsClimateMarine weather Cyclones Lightning AirportsFAQ Newsletter About
Weather : Europe Africa North America South America Asia Australia-Oceania Others
Languages Contact

Mangalore, India

Mangalore Airport

latitude: 12-55N, longitude: 074-53E, elevation: 102 m


METAR: missing
TAF: VOML 051500Z 0518/0624 34005KT 6000 SCT015 BECMG 0606/0607 27010KT TEMPO 0609/0615 SCT015 FEW025CB BECMG 0618/0619 34005KT

Time: 00:09 (18:39 UTC)

Forecast

The report was made 3 hours and 39 minutes ago, at 15:00 UTC
Forecast valid from 05 at 18 UTC to 06 at 24 UTC
Wind 5 kt from the North/Northwest
Visibility: 6000 m
Scattered clouds at a height of 1500 ft
Becoming
from 06 at 06 UTC to 06 at 07 UTC
Wind 10 kt from the West
Temporary
from 06 at 09 UTC to 06 at 15 UTC
Scattered clouds at a height of 1500 ft
Few clouds at a height of 2500 ft, Cumulonimbus.
Becoming
from 06 at 18 UTC to 06 at 19 UTC
Wind 5 kt from the North/Northwest
The information on this site is subject to a disclaimer
Weather : Europe Africa North America South America Asia Australia-Oceania Others
Satellite images 10-day forecastsClimateMarine weather Cyclones Lightning AirportsFAQ Languages Contact Newsletter About